Time;durP1;ratioP1;P1;durP2;ratioP2;P2;SDS_P1;SDS_P2;PMS_P1;PMS_P2;Temp;Humidity;BMP_temperature;BMP_pressure;BME280_temperature;BME280_humidity;BME280_pressure;Samples;Min_cycle;Max_cycle;Signal;HPM_P1;HPM_P2
2022/06/01 00:00:47;;;;;;;;;;;;;;;27.71;33.94;100700.31;5074841;28;865;-47
2022/06/01 00:03:12;;;;;;;;;;;;;;;27.73;34.03;100700.13;5079925;28;778;-45
2022/06/01 00:05:37;;;;;;;;;;;;;;;27.82;33.76;100707.09;5079541;28;900;-46
2022/06/01 00:08:03;;;;;;;;;;;;;;;27.79;34.04;100693.97;5079324;28;914;-48
2022/06/01 00:10:29;;;;;;;;;;;;;;;27.85;33.91;100685.09;5079408;28;806;-48
2022/06/01 00:12:54;;;;;;;;;;;;;;;27.79;34.05;100685.88;5078854;28;802;-45
2022/06/01 00:15:20;;;;;;;;;;;;;;;27.84;33.79;100682.59;5078940;28;1910;-50
2022/06/01 00:17:46;;;;;;;;;;;;;;;27.82;34.11;100682.78;5079344;28;794;-44
2022/06/01 00:20:11;;;;;;;;;;;;;;;27.84;34.02;100691.50;5079136;28;781;-45
2022/06/01 00:22:36;;;;;;;;;;;;;;;27.91;33.53;100680.78;5078958;28;889;-46
2022/06/01 00:25:02;;;;;;;;;;;;;;;27.93;33.79;100680.59;5079070;28;934;-47
2022/06/01 00:27:27;;;;;;;;;;;;;;;27.96;34.37;100675.66;5079199;28;1122;-45
2022/06/01 00:29:53;;;;;;;;;;;;;;;27.94;33.81;100669.63;5078461;28;802;-44
2022/06/01 00:32:18;;;;;;;;;;;;;;;27.94;33.80;100672.31;5078423;28;1049;-45
2022/06/01 00:34:43;;;;;;;;;;;;;;;27.89;33.76;100674.75;5079122;28;1985;-44
2022/06/01 00:37:09;;;;;;;;;;;;;;;27.94;34.15;100675.03;5078504;28;797;-46
2022/06/01 00:39:34;;;;;;;;;;;;;;;27.97;34.33;100668.38;5079123;28;793;-48
2022/06/01 00:42:09;;;;;;;;;;;;;;;28.03;34.08;100658.69;5078897;28;856;-46
2022/06/01 00:44:34;;;;;;;;;;;;;;;28.01;34.08;100658.03;5078650;28;852;-46
2022/06/01 00:46:59;;;;;;;;;;;;;;;28.04;33.88;100650.38;5078566;28;895;-45
2022/06/01 00:49:25;;;;;;;;;;;;;;;28.07;34.29;100655.41;5078501;28;794;-50
2022/06/01 00:51:50;;;;;;;;;;;;;;;28.06;33.89;100648.28;5060033;28;951;-48
2022/06/01 00:54:15;;;;;;;;;;;;;;;28.10;33.94;100654.16;5060779;28;854;-52
2022/06/01 00:56:48;;;;;;;;;;;;;;;28.07;34.08;100647.28;5060367;28;1894;-47
2022/06/01 00:59:14;;;;;;;;;;;;;;;28.02;33.91;100646.19;5072769;28;849;-47
2022/06/01 01:01:40;;;;;;;;;;;;;;;28.03;34.11;100645.97;5078546;28;871;-45
2022/06/01 01:04:05;;;;;;;;;;;;;;;28.05;34.35;100640.38;5059800;28;893;-45
2022/06/01 01:06:38;;;;;;;;;;;;;;;28.03;34.18;100640.56;5060289;28;853;-48
2022/06/01 01:09:03;;;;;;;;;;;;;;;28.04;34.12;100638.72;5072661;28;810;-49
2022/06/01 01:11:49;;;;;;;;;;;;;;;28.14;33.98;100633.00;5078251;28;742;-48
2022/06/01 01:14:15;;;;;;;;;;;;;;;28.09;33.97;100630.88;5060672;28;1672;-47
2022/06/01 01:16:40;;;;;;;;;;;;;;;28.14;34.05;100635.69;5077638;28;1898;-46
2022/06/01 01:19:13;;;;;;;;;;;;;;;28.09;34.13;100631.69;5077894;28;774;-46
2022/06/01 01:21:46;;;;;;;;;;;;;;;28.07;34.31;100625.66;5060552;28;952;-48
2022/06/01 01:24:33;;;;;;;;;;;;;;;28.13;34.15;100621.31;5060440;28;802;-47
2022/06/01 01:26:58;;;;;;;;;;;;;;;28.10;33.94;100627.13;5077980;28;1233;-45
2022/06/01 01:29:34;;;;;;;;;;;;;;;28.18;34.12;100626.16;5078012;28;919;-44
2022/06/01 01:32:00;;;;;;;;;;;;;;;28.15;34.13;100629.25;5074459;28;967;-46
2022/06/01 01:34:25;;;;;;;;;;;;;;;28.13;34.16;100632.13;5077643;28;833;-46
2022/06/01 01:36:51;;;;;;;;;;;;;;;28.22;34.57;100632.84;5077697;28;1902;-46
2022/06/01 01:39:16;;;;;;;;;;;;;;;28.13;34.49;100637.53;5060131;28;845;-47
2022/06/01 01:41:45;;;;;;;;;;;;;;;28.16;34.27;100637.16;5077896;28;757;-46
2022/06/01 01:44:14;;;;;;;;;;;;;;;28.11;33.80;100632.34;5078286;28;786;-45
2022/06/01 01:46:39;;;;;;;;;;;;;;;28.10;33.79;100635.22;5077351;28;794;-46
2022/06/01 01:49:04;;;;;;;;;;;;;;;28.18;34.45;100640.50;5077623;28;728;-44
2022/06/01 01:51:30;;;;;;;;;;;;;;;28.15;34.55;100630.09;5077095;28;877;-43
2022/06/01 01:53:56;;;;;;;;;;;;;;;28.17;34.32;100640.72;5077056;28;817;-44
2022/06/01 01:56:24;;;;;;;;;;;;;;;28.07;34.01;100639.16;5077663;28;1885;-44
2022/06/01 01:58:52;;;;;;;;;;;;;;;28.07;34.63;100633.75;5077216;28;846;-46
2022/06/01 02:01:19;;;;;;;;;;;;;;;28.08;34.88;100629.19;5076663;28;836;-45
2022/06/01 02:03:46;;;;;;;;;;;;;;;28.11;34.16;100632.34;5077744;28;758;-46
2022/06/01 02:06:24;;;;;;;;;;;;;;;28.17;34.60;100629.88;5059321;28;806;-44
2022/06/01 02:08:57;;;;;;;;;;;;;;;28.06;34.67;100625.84;5070900;28;849;-44
2022/06/01 02:14:15;;;;;;;;;;;;;;;28.06;34.72;100625.84;5077538;28;879;-47
2022/06/01 02:16:43;;;;;;;;;;;;;;;28.10;35.03;100624.41;5076917;28;2199;-43
2022/06/01 02:19:09;;;;;;;;;;;;;;;28.06;34.76;100620.44;5076452;28;818;-42
2022/06/01 02:21:35;;;;;;;;;;;;;;;28.08;35.12;100616.50;5059081;28;845;-43
2022/06/01 02:24:00;;;;;;;;;;;;;;;28.06;34.94;100626.66;5058441;28;842;-46
2022/06/01 02:26:26;;;;;;;;;;;;;;;28.04;35.27;100623.34;5058700;28;1154;-45
2022/06/01 02:28:52;;;;;;;;;;;;;;;28.06;34.90;100628.56;5058722;28;1104;-43
2022/06/01 02:31:17;;;;;;;;;;;;;;;28.09;35.53;100628.16;5057801;28;1141;-44
2022/06/01 02:33:43;;;;;;;;;;;;;;;28.06;35.16;100626.66;5058522;28;850;-43
2022/06/01 02:36:09;;;;;;;;;;;;;;;28.11;35.47;100609.88;5059126;28;1987;-43
2022/06/01 02:38:36;;;;;;;;;;;;;;;28.11;35.21;100618.00;5076453;28;909;-45
2022/06/01 02:41:01;;;;;;;;;;;;;;;28.08;35.75;100626.47;5057774;28;1132;-43
2022/06/01 02:43:27;;;;;;;;;;;;;;;28.08;35.66;100632.72;5076784;28;809;-43
2022/06/01 02:45:52;;;;;;;;;;;;;;;28.13;35.25;100634.03;5075772;28;783;-45
2022/06/01 02:48:17;;;;;;;;;;;;;;;28.16;35.40;100637.16;5076700;28;817;-44
2022/06/01 02:50:43;;;;;;;;;;;;;;;28.20;35.56;100634.91;5058412;28;813;-44
2022/06/01 02:53:09;;;;;;;;;;;;;;;28.18;35.24;100636.97;5076488;28;838;-44
2022/06/01 02:55:34;;;;;;;;;;;;;;;28.17;35.36;100638.84;5058178;28;1893;-46
2022/06/01 02:57:59;;;;;;;;;;;;;;;28.24;35.17;100633.50;5076158;28;777;-44
2022/06/01 03:00:26;;;;;;;;;;;;;;;28.21;35.11;100634.72;5076125;28;872;-45
2022/06/01 03:02:52;;;;;;;;;;;;;;;28.16;34.79;100637.16;5076384;28;938;-45
2022/06/01 03:05:18;;;;;;;;;;;;;;;28.23;35.08;100646.19;5076620;28;760;-43
2022/06/01 03:07:44;;;;;;;;;;;;;;;28.18;35.07;100642.38;5076612;28;903;-45
2022/06/01 03:10:12;;;;;;;;;;;;;;;28.16;35.21;100641.75;5076028;28;1425;-45
2022/06/01 03:12:37;;;;;;;;;;;;;;;28.30;35.32;100640.00;5076026;28;794;-46
2022/06/01 03:15:03;;;;;;;;;;;;;;;28.24;35.17;100647.03;5075943;28;1979;-44
2022/06/01 03:17:29;;;;;;;;;;;;;;;28.20;35.47;100646.56;5076306;28;1038;-44
2022/06/01 03:19:54;;;;;;;;;;;;;;;28.32;35.01;100643.34;5075924;28;872;-42
2022/06/01 03:22:19;;;;;;;;;;;;;;;28.23;35.18;100640.78;5075390;28;1099;-43
2022/06/01 03:24:45;;;;;;;;;;;;;;;28.19;35.18;100644.91;5075827;28;793;-44
2022/06/01 03:27:10;;;;;;;;;;;;;;;28.15;35.04;100638.19;5075355;28;1232;-41
2022/06/01 03:29:36;;;;;;;;;;;;;;;28.28;35.28;100644.78;5075821;28;844;-43
2022/06/01 03:32:01;;;;;;;;;;;;;;;28.25;34.83;100640.59;5075687;28;834;-46
2022/06/01 03:34:30;;;;;;;;;;;;;;;27.69;36.55;100647.47;5075563;28;882;-43
2022/06/01 03:36:55;;;;;;;;;;;;;;;27.24;39.19;100649.16;5077333;28;1914;-42
2022/06/01 03:39:21;;;;;;;;;;;;;;;26.70;41.25;100637.53;5080108;28;1150;-42
2022/06/01 03:41:46;;;;;;;;;;;;;;;26.67;41.43;100645.16;5079648;28;797;-42
2022/06/01 03:47:05;;;;;;;;;;;;;;;26.73;41.53;100647.97;5079572;28;833;-42
2022/06/01 03:49:31;;;;;;;;;;;;;;;26.29;43.15;100652.19;5079167;28;757;-42
2022/06/01 03:51:56;;;;;;;;;;;;;;;25.97;44.08;100652.22;5079341;28;943;-41
2022/06/01 03:54:21;;;;;;;;;;;;;;;25.01;46.94;100651.19;5080091;28;730;-44
2022/06/01 03:56:47;;;;;;;;;;;;;;;25.22;46.99;100655.22;5079701;28;1905;-45
2022/06/01 03:59:12;;;;;;;;;;;;;;;25.82;45.21;100653.97;5079964;28;1524;-40
2022/06/01 04:01:37;;;;;;;;;;;;;;;26.44;43.80;100656.81;5079184;28;869;-41
2022/06/01 04:04:03;;;;;;;;;;;;;;;26.85;41.00;100667.25;5079195;28;912;-41
2022/06/01 04:06:28;;;;;;;;;;;;;;;26.98;41.30;100666.63;5061420;28;999;-42
2022/06/01 04:08:53;;;;;;;;;;;;;;;27.17;41.44;100671.69;5079162;28;844;-41
2022/06/01 04:11:18;;;;;;;;;;;;;;;27.33;41.32;100667.97;5079108;28;818;-42
2022/06/01 04:13:44;;;;;;;;;;;;;;;27.41;41.44;100667.88;5078995;28;789;-42
2022/06/01 04:16:10;;;;;;;;;;;;;;;27.53;41.40;100670.13;5078756;28;1969;-41
2022/06/01 04:18:35;;;;;;;;;;;;;;;27.49;41.38;100670.47;5079515;28;886;-41
2022/06/01 04:21:00;;;;;;;;;;;;;;;27.43;41.47;100673.09;5079422;28;885;-42
2022/06/01 04:23:25;;;;;;;;;;;;;;;27.50;41.00;100666.75;5078974;28;841;-41
2022/06/01 04:25:51;;;;;;;;;;;;;;;27.62;41.51;100677.94;5079309;28;1001;-44
2022/06/01 04:28:16;;;;;;;;;;;;;;;27.65;41.46;100676.72;5078737;28;1002;-41
2022/06/01 04:30:41;;;;;;;;;;;;;;;27.68;41.39;100675.47;5079104;28;886;-41
2022/06/01 04:33:06;;;;;;;;;;;;;;;27.63;41.78;100674.19;5078870;28;798;-41
2022/06/01 04:35:32;;;;;;;;;;;;;;;27.72;41.56;100680.38;5060674;28;1902;-41
2022/06/01 04:38:12;;;;;;;;;;;;;;;27.73;41.66;100673.94;5079288;28;839;-41
2022/06/01 04:40:37;;;;;;;;;;;;;;;27.72;42.21;100688.47;5078392;28;865;-42
2022/06/01 04:43:03;;;;;;;;;;;;;;;27.81;41.44;100683.78;5078846;28;798;-42
2022/06/01 04:45:28;;;;;;;;;;;;;;;27.87;41.51;100683.06;5078205;28;850;-41
2022/06/01 04:47:53;;;;;;;;;;;;;;;27.88;41.74;100689.28;5078516;28;757;-40
2022/06/01 04:50:19;;;;;;;;;;;;;;;27.90;41.75;100689.94;5078440;28;797;-42
2022/06/01 04:52:44;;;;;;;;;;;;;;;27.92;41.45;100692.44;5078085;28;806;-41
2022/06/01 04:55:09;;;;;;;;;;;;;;;27.95;41.51;100697.47;5078959;28;1968;-42
2022/06/01 04:57:36;;;;;;;;;;;;;;;27.95;41.67;100692.91;5079004;28;934;-41
2022/06/01 05:00:02;;;;;;;;;;;;;;;27.91;41.58;100694.31;5078676;28;852;-41
2022/06/01 05:02:27;;;;;;;;;;;;;;;28.03;41.59;100699.25;5077737;28;1029;-41
2022/06/01 05:04:52;;;;;;;;;;;;;;;28.06;41.61;100698.84;5076184;28;1391;-41
2022/06/01 05:07:18;;;;;;;;;;;;;;;28.09;41.33;100699.28;5077360;28;1138;-41
2022/06/01 05:09:43;;;;;;;;;;;;;;;28.17;41.73;100705.63;5078323;28;1022;-39
2022/06/01 05:12:08;;;;;;;;;;;;;;;28.15;41.83;100719.34;5078438;28;872;-39
2022/06/01 05:14:34;;;;;;;;;;;;;;;28.22;41.75;100714.84;5077327;28;1056;-40
2022/06/01 05:17:00;;;;;;;;;;;;;;;28.20;41.89;100716.91;5077837;28;1952;-40
2022/06/01 05:19:26;;;;;;;;;;;;;;;28.21;42.00;100720.44;5077947;28;849;-40
2022/06/01 05:21:52;;;;;;;;;;;;;;;28.27;41.84;100721.53;5078683;28;782;-40
2022/06/01 05:24:18;;;;;;;;;;;;;;;28.31;41.70;100717.44;5077989;28;792;-38
2022/06/01 05:26:43;;;;;;;;;;;;;;;28.24;41.93;100723.59;5078097;28;1119;-38
2022/06/01 05:29:08;;;;;;;;;;;;;;;28.31;41.65;100720.94;5077940;28;1055;-40
2022/06/01 05:31:33;;;;;;;;;;;;;;;28.38;41.45;100715.63;5077945;28;923;-41
2022/06/01 05:33:59;;;;;;;;;;;;;;;28.35;41.43;100711.47;5077996;28;778;-39
2022/06/01 05:36:24;;;;;;;;;;;;;;;28.22;41.29;100716.69;5077550;28;1985;-48
2022/06/01 05:38:50;;;;;;;;;;;;;;;28.33;41.57;100716.22;5078124;28;877;-45
2022/06/01 05:41:15;;;;;;;;;;;;;;;28.29;42.03;100719.47;5077485;28;1074;-44
2022/06/01 05:43:41;;;;;;;;;;;;;;;28.26;41.80;100725.28;5076893;28;1033;-44
2022/06/01 05:46:06;;;;;;;;;;;;;;;28.28;41.44;100720.53;5077376;28;908;-45
2022/06/01 05:48:31;;;;;;;;;;;;;;;28.30;41.74;100713.03;5077749;28;918;-44
2022/06/01 05:50:57;;;;;;;;;;;;;;;28.27;41.60;100714.25;5077907;28;758;-44
2022/06/01 05:53:22;;;;;;;;;;;;;;;28.27;41.63;100705.31;5077280;28;798;-43
2022/06/01 05:55:47;;;;;;;;;;;;;;;28.23;40.43;100710.25;5076627;28;1897;-44
2022/06/01 05:58:14;;;;;;;;;;;;;;;28.22;40.97;100712.16;5076709;28;800;-44
2022/06/01 06:00:39;;;;;;;;;;;;;;;28.28;41.44;100710.53;5076497;28;922;-44
2022/06/01 06:03:04;;;;;;;;;;;;;;;28.39;41.40;100714.63;5077064;28;789;-44
2022/06/01 06:08:14;;;;;;;;;;;;;;;28.41;41.54;100714.44;5061627;28;837;-46
2022/06/01 06:10:39;;;;;;;;;;;;;;;28.50;42.02;100712.41;5077397;28;884;-44
2022/06/01 06:13:05;;;;;;;;;;;;;;;28.52;40.80;100708.50;5077371;28;867;-45
2022/06/01 06:15:30;;;;;;;;;;;;;;;28.54;40.92;100714.56;5076938;28;1906;-42
2022/06/01 06:17:55;;;;;;;;;;;;;;;28.55;39.98;100709.97;5077151;28;734;-46
2022/06/01 06:20:20;;;;;;;;;;;;;;;28.56;40.23;100701.66;5077152;28;900;-45
2022/06/01 06:22:46;;;;;;;;;;;;;;;28.60;39.55;100707.53;5076857;28;905;-44
2022/06/01 06:25:11;;;;;;;;;;;;;;;28.63;39.67;100715.25;5077329;28;904;-44
2022/06/01 06:27:36;;;;;;;;;;;;;;;28.66;39.99;100704.03;5076579;28;1247;-42
2022/06/01 06:30:02;;;;;;;;;;;;;;;28.65;40.00;100706.94;5076434;28;822;-42
2022/06/01 06:32:28;;;;;;;;;;;;;;;28.68;40.08;100712.81;5076556;28;1046;-44
2022/06/01 06:34:53;;;;;;;;;;;;;;;28.69;39.92;100706.38;5076126;28;813;-45
2022/06/01 06:37:19;;;;;;;;;;;;;;;28.70;40.25;100710.75;5076806;28;1980;-46
2022/06/01 06:39:44;;;;;;;;;;;;;;;28.74;40.16;100703.09;5077034;28;809;-49
2022/06/01 06:42:09;;;;;;;;;;;;;;;28.72;40.69;100703.28;5076437;28;866;-43
2022/06/01 06:44:35;;;;;;;;;;;;;;;28.80;40.11;100707.72;5076549;28;853;-47
2022/06/01 06:47:00;;;;;;;;;;;;;;;28.79;40.26;100705.19;5076037;28;781;-43
2022/06/01 06:49:25;;;;;;;;;;;;;;;28.88;40.16;100698.59;5077102;28;773;-44
2022/06/01 06:51:51;;;;;;;;;;;;;;;28.90;38.85;100698.41;5076323;28;1520;-43
2022/06/01 06:54:18;;;;;;;;;;;;;;;28.93;38.88;100698.84;5076746;28;1531;-44
2022/06/01 06:56:43;;;;;;;;;;;;;;;28.95;37.78;100691.38;5075759;28;1902;-47
2022/06/01 06:59:11;;;;;;;;;;;;;;;28.97;39.08;100696.63;5076175;28;829;-45
2022/06/01 07:01:36;;;;;;;;;;;;;;;28.98;39.58;100697.47;5068904;28;1052;-45
2022/06/01 07:04:02;;;;;;;;;;;;;;;29.00;39.52;100688.09;5076338;28;1151;-45
2022/06/01 07:06:27;;;;;;;;;;;;;;;29.01;38.18;100689.75;5075966;28;1175;-45
2022/06/01 07:08:53;;;;;;;;;;;;;;;29.08;38.87;100687.94;5076215;28;1285;-48
2022/06/01 07:11:19;;;;;;;;;;;;;;;29.09;38.72;100694.22;5075922;28;1075;-45
2022/06/01 07:13:46;;;;;;;;;;;;;;;29.11;38.32;100686.72;5075755;28;1365;-47
2022/06/01 07:16:12;;;;;;;;;;;;;;;29.08;38.41;100682.53;5075098;28;1902;-45
2022/06/01 07:18:38;;;;;;;;;;;;;;;29.02;38.81;100680.63;5076162;28;878;-45
2022/06/01 07:21:03;;;;;;;;;;;;;;;28.99;39.46;100688.28;5076402;28;763;-46
2022/06/01 07:23:29;;;;;;;;;;;;;;;28.98;39.06;100683.94;5076033;28;806;-47
2022/06/01 07:25:54;;;;;;;;;;;;;;;29.03;38.96;100682.28;5075388;28;1059;-49
2022/06/01 07:28:21;;;;;;;;;;;;;;;28.99;38.80;100683.72;5076207;28;804;-48
2022/06/01 07:30:49;;;;;;;;;;;;;;;28.98;38.93;100692.88;5075664;28;864;-46
2022/06/01 07:33:14;;;;;;;;;;;;;;;29.08;38.90;100685.25;5076288;28;802;-46
2022/06/01 07:35:39;;;;;;;;;;;;;;;29.23;38.65;100689.69;5076104;28;1968;-45
2022/06/01 07:43:32;;;;;;;;;;;;;;;29.07;38.03;100680.88;5069777;28;643;-49
2022/06/01 07:45:58;;;;;;;;;;;;;;;29.04;38.42;100685.84;5075739;28;897;-47
2022/06/01 07:48:23;;;;;;;;;;;;;;;29.03;38.68;100692.31;5075781;28;809;-45
2022/06/01 07:50:50;;;;;;;;;;;;;;;28.93;38.07;100689.88;5075345;28;1491;-49
2022/06/01 07:53:16;;;;;;;;;;;;;;;29.08;38.20;100679.81;5076113;28;766;-51
2022/06/01 07:55:41;;;;;;;;;;;;;;;29.09;37.93;100684.19;5075903;28;1969;-51
2022/06/01 07:58:07;;;;;;;;;;;;;;;29.11;37.85;100681.31;5075565;28;881;-53
2022/06/01 08:00:32;;;;;;;;;;;;;;;29.12;38.13;100679.41;5075831;28;813;-49
2022/06/01 08:02:57;;;;;;;;;;;;;;;29.14;38.06;100686.31;5075525;28;792;-46
2022/06/01 08:05:23;;;;;;;;;;;;;;;29.11;38.26;100689.44;5075865;28;837;-50
2022/06/01 08:07:48;;;;;;;;;;;;;;;29.15;38.58;100690.69;5075794;28;861;-53
2022/06/01 08:10:14;;;;;;;;;;;;;;;29.22;38.55;100690.75;5075572;28;745;-49
2022/06/01 08:15:23;;;;;;;;;;;;;;;29.24;38.61;100702.22;5074640;28;1902;-51
2022/06/01 08:17:48;;;;;;;;;;;;;;;29.21;38.95;100706.16;5075388;28;1077;-52
2022/06/01 08:20:14;;;;;;;;;;;;;;;29.23;38.84;100697.00;5075542;28;1316;-49
2022/06/01 08:22:40;;;;;;;;;;;;;;;29.21;38.04;100695.31;5077516;28;968;-49
2022/06/01 08:25:05;;;;;;;;;;;;;;;29.11;37.84;100702.97;5079112;28;1100;-50
2022/06/01 08:27:31;;;;;;;;;;;;;;;29.12;37.63;100703.78;5078926;28;1187;-51
2022/06/01 08:29:56;;;;;;;;;;;;;;;29.14;37.16;100702.59;5078427;28;836;-49
2022/06/01 08:32:21;;;;;;;;;;;;;;;29.13;36.69;100710.91;5079265;28;861;-47
2022/06/01 08:34:47;;;;;;;;;;;;;;;29.14;36.82;100702.59;5079038;28;838;-49
2022/06/01 08:37:12;;;;;;;;;;;;;;;29.14;36.79;100712.56;5078848;28;1971;-49
2022/06/01 08:39:37;;;;;;;;;;;;;;;29.11;36.48;100713.81;5078925;28;976;-48
2022/06/01 08:42:03;;;;;;;;;;;;;;;29.08;36.74;100716.88;5079038;28;739;-48
2022/06/01 08:44:30;;;;;;;;;;;;;;;29.08;36.42;100717.72;5079332;28;838;-47
2022/06/01 08:46:56;;;;;;;;;;;;;;;29.13;36.22;100714.44;5078495;28;1095;-48
2022/06/01 08:49:23;;;;;;;;;;;;;;;29.08;36.24;100712.31;5078340;28;1238;-49
2022/06/01 08:51:48;;;;;;;;;;;;;;;29.06;36.08;100713.56;5061049;28;943;-49
2022/06/01 08:54:13;;;;;;;;;;;;;;;29.07;36.09;100707.09;5060142;28;942;-51
2022/06/01 08:56:43;;;;;;;;;;;;;;;29.07;35.81;100710.66;5078990;28;1909;-50
2022/06/01 08:59:17;;;;;;;;;;;;;;;29.08;35.78;100714.19;5072076;28;814;-45
2022/06/01 09:01:44;;;;;;;;;;;;;;;29.04;35.82;100711.06;5072600;28;830;-46
2022/06/01 09:04:22;;;;;;;;;;;;;;;29.06;35.46;100716.28;5060475;28;938;-46
2022/06/01 09:07:11;;;;;;;;;;;;;;;29.02;35.50;100706.84;5060535;28;839;-50
2022/06/01 09:09:39;;;;;;;;;;;;;;;29.03;35.15;100706.66;5067685;28;1210;-49
2022/06/01 09:12:05;;;;;;;;;;;;;;;29.04;35.41;100708.34;5078272;28;911;-47
2022/06/01 09:14:30;;;;;;;;;;;;;;;29.01;35.22;100702.47;5078242;28;892;-45
2022/06/01 09:16:57;;;;;;;;;;;;;;;29.05;35.08;100696.47;5060261;28;1955;-48
2022/06/01 09:19:29;;;;;;;;;;;;;;;29.02;35.25;100698.72;5078290;28;806;-47
2022/06/01 09:24:50;;;;;;;;;;;;;;;29.04;35.24;100702.09;5076315;28;1298;-48
2022/06/01 09:27:16;;;;;;;;;;;;;;;29.03;34.84;100701.25;5077754;28;1012;-46
2022/06/01 09:29:45;;;;;;;;;;;;;;;29.06;35.08;100694.59;5060351;28;804;-45
2022/06/01 09:32:34;;;;;;;;;;;;;;;29.06;35.16;100697.31;5077541;28;793;-50
2022/06/01 09:35:00;;;;;;;;;;;;;;;29.07;34.68;100697.13;5065915;28;1177;-47
2022/06/01 09:37:26;;;;;;;;;;;;;;;29.06;35.00;100694.59;5077978;28;1973;-47
2022/06/01 09:40:00;;;;;;;;;;;;;;;29.07;35.20;100701.69;5059108;28;897;-46
2022/06/01 09:42:39;;;;;;;;;;;;;;;29.01;35.39;100700.59;5060095;28;778;-51
2022/06/01 09:45:34;;;;;;;;;;;;;;;29.03;35.50;100692.31;5077600;28;797;-48
2022/06/01 09:48:17;;;;;;;;;;;;;;;29.01;35.17;100699.78;5056122;28;1768;-47
2022/06/01 09:50:43;;;;;;;;;;;;;;;29.01;35.31;100697.88;5059666;28;1104;-50
2022/06/01 09:53:18;;;;;;;;;;;;;;;29.02;34.77;100694.16;5059079;28;1041;-50
2022/06/01 09:55:54;;;;;;;;;;;;;;;29.05;34.44;100695.63;5077566;28;1890;-46
2022/06/01 10:06:05;;;;;;;;;;;;;;;29.13;34.77;100698.19;5076731;28;1147;-52
2022/06/01 10:06:36;;;;;;;;;;;;;;;29.05;34.92;100684.78;5075873;28;1235;-47
2022/06/01 10:09:12;;;;;;;;;;;;;;;29.01;34.93;100683.53;5059686;28;1094;-46
2022/06/01 10:11:40;;;;;;;;;;;;;;;29.04;35.13;100683.13;5074563;28;877;-47
2022/06/01 10:14:12;;;;;;;;;;;;;;;29.04;35.47;100683.13;5059388;28;1018;-51
2022/06/01 10:16:37;;;;;;;;;;;;;;;28.98;35.17;100671.19;5077106;28;1964;-47
2022/06/01 10:19:07;;;;;;;;;;;;;;;29.01;35.17;100668.09;5077262;28;936;-47
2022/06/01 10:21:45;;;;;;;;;;;;;;;29.00;35.06;100679.97;5059532;28;793;-50
2022/06/01 10:24:12;;;;;;;;;;;;;;;28.97;35.17;100666.84;5058692;28;950;-48
2022/06/01 10:26:38;;;;;;;;;;;;;;;29.01;34.93;100667.28;5076831;28;1254;-49
2022/06/01 10:29:05;;;;;;;;;;;;;;;28.99;35.14;100669.34;5076501;28;1084;-49
2022/06/01 10:31:32;;;;;;;;;;;;;;;28.96;35.29;100670.56;5058025;28;1275;-50
2022/06/01 10:34:02;;;;;;;;;;;;;;;28.92;35.49;100677.38;5076786;28;1504;-51
2022/06/01 10:36:35;;;;;;;;;;;;;;;28.91;35.45;100683.84;5058012;28;1902;-50
2022/06/01 10:39:05;;;;;;;;;;;;;;;28.89;35.39;100667.78;5054731;28;750;-49
2022/06/01 10:41:59;;;;;;;;;;;;;;;28.88;35.48;100673.41;5059095;28;853;-49
2022/06/01 10:44:29;;;;;;;;;;;;;;;28.88;35.45;100674.22;4987138;28;1319;-47
2022/06/01 10:46:59;;;;;;;;;;;;;;;28.91;35.16;100663.00;5076343;28;804;-47
2022/06/01 10:49:26;;;;;;;;;;;;;;;28.90;35.35;100666.75;5070374;28;1001;-47
2022/06/01 10:51:56;;;;;;;;;;;;;;;28.93;35.14;100665.50;5076600;28;949;-48
2022/06/01 10:54:24;;;;;;;;;;;;;;;28.90;35.04;100666.75;5070517;28;1294;-52
2022/06/01 10:56:49;;;;;;;;;;;;;;;27.25;40.89;100667.06;5070411;28;1903;-52
2022/06/01 10:59:16;;;;;;;;;;;;;;;23.96;45.70;100657.00;5058568;28;1441;-48
2022/06/01 11:01:44;;;;;;;;;;;;;;;22.67;47.05;100652.25;5057201;28;1065;-48
2022/06/01 11:04:18;;;;;;;;;;;;;;;24.54;46.21;100660.81;5076448;28;754;-45
2022/06/01 11:07:10;;;;;;;;;;;;;;;24.49;44.48;100658.59;5069978;28;794;-45
2022/06/01 11:09:38;;;;;;;;;;;;;;;22.50;49.46;100667.34;5037592;28;1090;-45
2022/06/01 11:12:23;;;;;;;;;;;;;;;24.14;48.81;100663.25;5058284;28;858;-45
2022/06/01 11:14:55;;;;;;;;;;;;;;;24.06;46.14;100664.91;5075453;28;801;-47
2022/06/01 11:17:36;;;;;;;;;;;;;;;22.25;50.37;100657.22;5075570;28;1901;-46
2022/06/01 11:20:02;;;;;;;;;;;;;;;24.89;46.01;100660.63;5071910;28;782;-50
2022/06/01 11:22:31;;;;;;;;;;;;;;;23.49;47.72;100661.00;5076157;28;893;-43
2022/06/01 11:25:08;;;;;;;;;;;;;;;22.49;55.65;100653.09;5076255;28;1024;-43
2022/06/01 11:27:52;;;;;;;;;;;;;;;25.41;43.99;100653.97;5057968;28;1238;-45
2022/06/01 11:30:18;;;;;;;;;;;;;;;22.63;50.10;100645.53;5075669;28;833;-49
2022/06/01 11:32:46;;;;;;;;;;;;;;;23.51;51.90;100658.16;5058564;28;798;-42
2022/06/01 11:35:17;;;;;;;;;;;;;;;25.21;45.60;100653.50;5075784;28;1984;-45
2022/06/01 11:37:44;;;;;;;;;;;;;;;22.31;51.17;100654.91;5076259;28;793;-48
2022/06/01 11:40:11;;;;;;;;;;;;;;;24.31;48.69;100648.84;5075382;28;814;-43
2022/06/01 11:42:57;;;;;;;;;;;;;;;23.71;48.13;100648.00;5057697;28;766;-47
2022/06/01 11:45:25;;;;;;;;;;;;;;;22.27;55.98;100641.81;5069132;28;1074;-43
2022/06/01 11:47:54;;;;;;;;;;;;;;;24.94;45.56;100642.97;5076141;28;848;-43
2022/06/01 11:50:44;;;;;;;;;;;;;;;23.20;49.00;100654.97;5058020;28;1529;-43
2022/06/01 11:53:13;;;;;;;;;;;;;;;23.30;53.08;100644.13;5074984;28;1231;-42
2022/06/01 11:55:38;;;;;;;;;;;;;;;25.59;45.47;100642.09;5075423;28;1901;-46
2022/06/01 11:58:04;;;;;;;;;;;;;;;22.68;50.53;100635.19;5078373;28;794;-50
2022/06/01 12:00:33;;;;;;;;;;;;;;;23.60;52.00;100641.94;5079550;28;813;-50
2022/06/01 12:03:17;;;;;;;;;;;;;;;25.72;45.21;100638.03;5079714;28;761;-51
2022/06/01 12:06:03;;;;;;;;;;;;;;;22.24;52.38;100634.09;5078533;28;784;-43
2022/06/01 12:08:32;;;;;;;;;;;;;;;24.83;46.37;100629.84;5074642;28;830;-46
2022/06/01 12:11:03;;;;;;;;;;;;;;;24.00;47.18;100633.31;5061708;28;782;-50
2022/06/01 12:13:49;;;;;;;;;;;;;;;22.66;56.45;100628.25;5061886;28;841;-46
2022/06/01 12:16:18;;;;;;;;;;;;;;;25.34;45.09;100627.91;5078582;28;1922;-48
2022/06/01 12:19:02;;;;;;;;;;;;;;;26.19;44.88;100636.25;5079304;28;827;-44
2022/06/01 12:21:27;;;;;;;;;;;;;;;22.45;51.26;100632.97;5073017;28;806;-48
2022/06/01 12:30:13;;;;;;;;;;;;;;;23.42;49.24;100644.69;5063664;28;749;-42
2022/06/01 12:32:58;;;;;;;;;;;;;;;23.28;53.50;100648.81;5078991;28;1233;-49
2022/06/01 12:35:23;;;;;;;;;;;;;;;25.73;45.59;100640.56;5078859;28;1963;-47
2022/06/01 12:37:53;;;;;;;;;;;;;;;25.79;45.14;100642.53;5078827;28;907;-45
2022/06/01 12:40:21;;;;;;;;;;;;;;;22.43;51.87;100634.09;5078524;28;867;-46
2022/06/01 12:42:53;;;;;;;;;;;;;;;24.39;48.18;100647.19;5061063;28;788;-49
2022/06/01 12:45:19;;;;;;;;;;;;;;;25.98;49.29;100647.66;5072928;28;786;-48
2022/06/01 12:48:11;;;;;;;;;;;;;;;24.15;47.88;100655.03;5079269;28;765;-46
2022/06/01 12:50:52;;;;;;;;;;;;;;;22.82;57.36;100652.53;5070304;28;1116;-47
2022/06/01 12:53:18;;;;;;;;;;;;;;;25.56;45.80;100648.69;5075946;28;1203;-49
2022/06/01 12:55:43;;;;;;;;;;;;;;;26.45;44.81;100653.94;5077771;28;1960;-42
2022/06/01 12:58:27;;;;;;;;;;;;;;;22.83;51.25;100650.69;5060207;28;1112;-42
2022/06/01 13:00:54;;;;;;;;;;;;;;;23.96;50.69;100656.13;5071980;28;811;-46
2022/06/01 13:03:20;;;;;;;;;;;;;;;25.66;48.58;100659.28;5078990;28;797;-43
2022/06/01 13:05:49;;;;;;;;;;;;;;;26.31;44.17;100652.81;5078660;28;1092;-46
2022/06/01 13:08:25;;;;;;;;;;;;;;;26.61;44.36;100650.25;5078037;28;822;-46
2022/06/01 13:10:52;;;;;;;;;;;;;;;22.92;50.49;100640.88;5073006;28;802;-47
2022/06/01 13:13:20;;;;;;;;;;;;;;;23.49;52.31;100650.25;5060324;28;865;-45
2022/06/01 13:15:53;;;;;;;;;;;;;;;25.63;44.78;100661.47;5078227;28;1893;-46
2022/06/01 13:18:19;;;;;;;;;;;;;;;26.27;43.78;100670.41;5078940;28;738;-45
2022/06/01 13:20:46;;;;;;;;;;;;;;;26.51;45.64;100674.78;5078399;28;844;-47
2022/06/01 13:23:25;;;;;;;;;;;;;;;23.35;49.02;100676.69;5078667;28;933;-44
2022/06/01 13:25:51;;;;;;;;;;;;;;;23.07;53.71;100663.44;5060656;28;1145;-46
2022/06/01 13:28:17;;;;;;;;;;;;;;;25.44;44.51;100658.19;5078077;28;884;-45